createdAt,value
2023-02-05T00:01:58.114Z,34.43
2023-02-05T00:04:25.350Z,34.21
2023-02-05T00:06:52.494Z,34.45
2023-02-05T00:09:19.763Z,34.33
2023-02-05T00:11:46.938Z,33.81
2023-02-05T00:14:14.166Z,34.08
2023-02-05T00:16:41.490Z,33.94
2023-02-05T00:19:09.040Z,33.99
2023-02-05T00:21:36.608Z,33.81
2023-02-05T00:24:04.213Z,34.13
2023-02-05T00:26:31.847Z,34.05
2023-02-05T00:28:59.210Z,34.61
2023-02-05T00:31:26.561Z,34.30
2023-02-05T00:33:54.382Z,34.80
2023-02-05T00:36:23.887Z,34.47
2023-02-05T00:38:54.725Z,35.13
2023-02-05T00:41:22.086Z,35.01
2023-02-05T00:43:49.526Z,34.92
2023-02-05T00:46:17.798Z,34.96
2023-02-05T00:48:45.179Z,35.13
2023-02-05T00:51:12.402Z,35.32
2023-02-05T00:53:39.784Z,35.68
2023-02-05T00:56:07.280Z,34.98
2023-02-05T00:58:34.988Z,35.09
2023-02-05T01:01:02.247Z,34.92
2023-02-05T01:03:30.962Z,35.25
2023-02-05T01:05:58.305Z,35.10
2023-02-05T01:08:25.585Z,34.99
2023-02-05T01:10:52.746Z,34.81
2023-02-05T01:13:20.192Z,34.73
2023-02-05T01:15:47.504Z,34.91
2023-02-05T01:18:15.156Z,35.96
2023-02-05T01:20:43.762Z,36.20
2023-02-05T01:23:12.143Z,36.18
2023-02-05T01:25:40.050Z,36.32
2023-02-05T01:28:07.476Z,35.59
2023-02-05T01:30:36.058Z,35.20
2023-02-05T01:33:04.554Z,35.10
2023-02-05T01:35:32.760Z,35.55
2023-02-05T01:38:00.151Z,36.13
2023-02-05T01:40:27.395Z,35.41
2023-02-05T01:42:54.736Z,35.68
2023-02-05T01:45:24.904Z,35.80
2023-02-05T01:48:01.663Z,36.17
2023-02-05T01:50:39.712Z,37.12
2023-02-05T01:53:14.022Z,37.04
2023-02-05T01:55:54.080Z,37.33
2023-02-05T01:58:22.913Z,37.66
2023-02-05T02:00:50.320Z,38.03
2023-02-05T02:03:18.106Z,37.13
2023-02-05T02:05:45.365Z,36.90
2023-02-05T02:08:13.677Z,36.96
2023-02-05T02:10:46.118Z,36.65
2023-02-05T02:13:14.776Z,36.69
2023-02-05T02:15:42.406Z,36.87
2023-02-05T02:18:11.001Z,37.10
2023-02-05T02:20:41.896Z,37.43
2023-02-05T02:23:38.378Z,37.71
2023-02-05T02:26:27.033Z,36.76
2023-02-05T02:29:03.829Z,37.06
2023-02-05T02:31:37.070Z,37.39
2023-02-05T02:34:18.374Z,37.66
2023-02-05T02:37:02.049Z,36.82
2023-02-05T02:39:44.590Z,36.77
2023-02-05T02:42:27.065Z,35.93
2023-02-05T02:45:00.626Z,36.37
2023-02-05T02:47:46.787Z,36.77
2023-02-05T02:50:26.459Z,36.80
2023-02-05T02:52:56.007Z,36.74
2023-02-05T02:55:25.147Z,36.46
2023-02-05T02:57:56.452Z,36.24
2023-02-05T03:00:27.896Z,36.37
2023-02-05T03:03:02.718Z,36.28
2023-02-05T03:05:31.859Z,35.81
2023-02-05T03:08:10.735Z,35.74
2023-02-05T03:11:12.056Z,35.13
2023-02-05T03:13:39.754Z,35.94
2023-02-05T03:16:08.163Z,35.48
2023-02-05T03:18:36.678Z,35.58
2023-02-05T03:21:13.644Z,35.21
2023-02-05T03:23:41.280Z,35.99
2023-02-05T03:26:28.571Z,37.05
2023-02-05T03:29:00.584Z,36.63
2023-02-05T03:31:58.119Z,36.73
2023-02-05T03:34:45.854Z,36.71
2023-02-05T03:37:46.068Z,37.10
2023-02-05T03:40:52.953Z,37.54
2023-02-05T03:43:31.685Z,37.70
2023-02-05T03:46:31.315Z,37.81
2023-02-05T03:49:35.527Z,38.37
2023-02-05T03:52:09.910Z,38.30
2023-02-05T03:55:02.745Z,38.38
2023-02-05T03:57:59.250Z,38.21
2023-02-05T04:00:27.693Z,38.33
2023-02-05T04:02:55.366Z,38.32
2023-02-05T04:05:22.644Z,38.34
2023-02-05T04:07:52.065Z,38.56
2023-02-05T04:10:20.136Z,38.51
2023-02-05T04:12:47.665Z,38.31
2023-02-05T04:15:15.028Z,38.69
2023-02-05T04:17:42.281Z,38.87
2023-02-05T04:20:10.334Z,38.83
2023-02-05T04:22:37.823Z,38.85
2023-02-05T04:25:05.480Z,38.94
2023-02-05T04:27:33.519Z,39.17
2023-02-05T04:30:00.723Z,39.00
2023-02-05T04:32:28.353Z,38.93
2023-02-05T04:34:55.746Z,39.16
2023-02-05T04:37:22.998Z,39.10
2023-02-05T04:39:50.269Z,39.46
2023-02-05T04:42:17.647Z,39.48
2023-02-05T04:44:45.052Z,39.54
2023-02-05T04:47:12.236Z,39.64
2023-02-05T04:49:39.563Z,39.55
2023-02-05T04:52:07.951Z,39.77
2023-02-05T04:54:37.108Z,39.65
2023-02-05T04:57:04.710Z,39.81
2023-02-05T04:59:32.002Z,39.88
2023-02-05T05:02:00.278Z,39.70
2023-02-05T05:04:27.591Z,39.81
2023-02-05T05:06:54.890Z,39.58
2023-02-05T05:09:22.185Z,39.42
2023-02-05T05:11:50.025Z,39.78
2023-02-05T05:14:17.332Z,40.22
2023-02-05T05:16:44.695Z,40.18
2023-02-05T05:19:12.234Z,40.30
2023-02-05T05:21:39.494Z,40.46
2023-02-05T05:24:07.094Z,40.32
2023-02-05T05:26:34.571Z,40.03
2023-02-05T05:29:02.111Z,40.31
2023-02-05T05:31:29.393Z,40.41
2023-02-05T05:33:56.607Z,40.17
2023-02-05T05:36:23.977Z,39.93
2023-02-05T05:38:51.235Z,40.55
2023-02-05T05:41:24.046Z,40.53
2023-02-05T05:43:54.559Z,40.64
2023-02-05T05:46:26.515Z,40.54
2023-02-05T05:49:01.725Z,40.66
2023-02-05T05:51:30.657Z,40.51
2023-02-05T05:53:57.951Z,40.42
2023-02-05T05:56:25.486Z,40.86
2023-02-05T05:58:53.069Z,40.27
2023-02-05T06:01:21.284Z,40.57
2023-02-05T06:03:48.827Z,40.50
2023-02-05T06:06:16.097Z,40.44
2023-02-05T06:08:43.424Z,40.82
2023-02-05T06:11:11.197Z,40.61
2023-02-05T06:13:38.842Z,40.76
2023-02-05T06:16:06.558Z,40.72
2023-02-05T06:18:34.057Z,40.65
2023-02-05T06:21:01.296Z,41.11
2023-02-05T06:23:28.628Z,40.94
2023-02-05T06:25:55.854Z,41.20
2023-02-05T06:28:23.143Z,40.99
2023-02-05T06:30:50.507Z,41.01
2023-02-05T06:33:17.810Z,40.83
2023-02-05T06:35:44.963Z,41.02
2023-02-05T06:38:12.100Z,41.08
2023-02-05T06:40:39.598Z,41.24
2023-02-05T06:43:07.010Z,41.14
2023-02-05T06:45:34.369Z,40.76
2023-02-05T06:48:01.846Z,41.07
2023-02-05T06:50:29.248Z,40.55
2023-02-05T06:52:56.574Z,41.05
2023-02-05T06:55:23.829Z,41.36
2023-02-05T06:57:50.941Z,40.95
2023-02-05T07:00:18.438Z,41.18
2023-02-05T07:02:45.785Z,40.91
2023-02-05T07:05:12.985Z,40.69
2023-02-05T07:07:40.250Z,41.23
2023-02-05T07:10:08.054Z,41.28
2023-02-05T07:12:35.300Z,41.29
2023-02-05T07:15:02.525Z,41.62
2023-02-05T07:17:29.953Z,41.21
2023-02-05T07:19:57.188Z,41.55
2023-02-05T07:22:24.929Z,41.37
2023-02-05T07:24:52.227Z,41.37
2023-02-05T07:27:19.793Z,41.52
2023-02-05T07:29:47.427Z,41.46
2023-02-05T07:32:14.632Z,41.89
2023-02-05T07:34:42.113Z,41.59
2023-02-05T07:37:12.554Z,41.67
2023-02-05T07:39:39.968Z,41.40
2023-02-05T07:42:07.136Z,40.91
2023-02-05T07:44:34.333Z,41.30
2023-02-05T07:47:02.258Z,41.51
2023-02-05T07:49:29.459Z,41.56
2023-02-05T07:51:56.666Z,41.67
2023-02-05T07:54:23.887Z,40.24
2023-02-05T07:56:51.500Z,40.51
2023-02-05T07:59:18.645Z,41.06
2023-02-05T08:01:46.943Z,41.22
2023-02-05T08:04:14.326Z,40.91
2023-02-05T08:06:42.596Z,40.97
2023-02-05T08:09:11.301Z,41.22
2023-02-05T08:11:39.040Z,40.95
2023-02-05T08:14:06.333Z,40.78
2023-02-05T08:16:33.564Z,41.09
2023-02-05T08:19:00.889Z,41.09
2023-02-05T08:21:28.134Z,40.69
2023-02-05T08:23:57.342Z,40.73
2023-02-05T08:26:24.781Z,40.46
2023-02-05T08:28:52.177Z,41.86
2023-02-05T08:31:19.944Z,42.91
2023-02-05T08:33:47.248Z,40.86
2023-02-05T08:36:14.545Z,39.91
2023-02-05T08:38:41.982Z,39.51
2023-02-05T08:41:11.365Z,39.81
2023-02-05T08:43:44.645Z,39.36
2023-02-05T08:46:16.796Z,39.08
2023-02-05T08:48:44.100Z,40.23
2023-02-05T08:51:13.918Z,39.77
2023-02-05T08:53:42.036Z,39.56
2023-02-05T08:56:09.810Z,40.10
2023-02-05T08:58:38.840Z,39.20
2023-02-05T09:01:17.354Z,38.54
2023-02-05T09:03:45.582Z,38.28
2023-02-05T09:06:15.891Z,38.55
2023-02-05T09:08:43.549Z,38.23
2023-02-05T09:11:11.296Z,37.77
2023-02-05T09:13:38.608Z,37.88
2023-02-05T09:16:06.051Z,38.17
2023-02-05T09:18:33.253Z,38.42
2023-02-05T09:21:00.548Z,38.28
2023-02-05T09:23:27.882Z,38.56
2023-02-05T09:25:55.289Z,38.22
2023-02-05T09:28:23.775Z,37.96
2023-02-05T09:30:51.489Z,37.74
2023-02-05T09:33:18.935Z,37.83
2023-02-05T09:35:46.261Z,38.13
2023-02-05T09:38:15.461Z,37.37
2023-02-05T09:41:08.498Z,37.57
2023-02-05T09:44:18.420Z,37.78
2023-02-05T09:47:24.177Z,37.47
2023-02-05T09:50:06.216Z,36.73
2023-02-05T09:52:45.557Z,36.22
2023-02-05T09:55:15.317Z,36.17
2023-02-05T09:57:43.330Z,36.26
2023-02-05T10:00:45.146Z,36.31
2023-02-05T10:03:34.602Z,36.09
2023-02-05T10:06:31.434Z,36.43
2023-02-05T10:09:18.855Z,35.80
2023-02-05T10:12:05.428Z,35.32
2023-02-05T10:14:58.641Z,35.09
2023-02-05T10:18:23.002Z,35.00
2023-02-05T10:21:12.053Z,35.08
2023-02-05T10:23:56.102Z,33.77
2023-02-05T10:26:44.058Z,34.11
2023-02-05T10:29:22.248Z,35.14
2023-02-05T10:32:13.354Z,33.89
2023-02-05T10:35:09.859Z,32.26
2023-02-05T10:37:52.920Z,32.27
2023-02-05T10:40:37.750Z,31.94
2023-02-05T10:43:30.349Z,30.94
2023-02-05T10:45:59.912Z,30.96
2023-02-05T10:48:47.035Z,31.33
2023-02-05T11:03:23.583Z,30.90
2023-02-05T11:05:51.945Z,31.77
2023-02-05T11:08:41.559Z,32.58
2023-02-05T11:11:29.648Z,33.92
2023-02-05T11:14:04.595Z,34.15
2023-02-05T11:16:45.722Z,34.58
2023-02-05T11:19:25.977Z,32.39
2023-02-05T11:21:59.552Z,33.78
2023-02-05T11:24:37.977Z,33.20
2023-02-05T11:27:27.593Z,31.69
2023-02-05T11:38:48.290Z,28.15
2023-02-05T11:41:33.289Z,26.15
2023-02-05T11:44:08.060Z,27.10
2023-02-05T11:47:04.866Z,25.73
2023-02-05T11:49:52.342Z,25.49
2023-02-05T11:53:24.155Z,25.96
2023-02-05T11:57:25.713Z,25.13
2023-02-05T12:00:22.671Z,24.33
2023-02-05T12:02:50.843Z,21.92
2023-02-05T12:05:27.073Z,20.50
2023-02-05T12:08:30.751Z,18.67
2023-02-05T12:11:19.630Z,17.55
2023-02-05T12:17:47.237Z,14.75
2023-02-05T12:20:41.189Z,14.20
2023-02-05T12:23:30.238Z,15.61
2023-02-05T12:26:16.257Z,15.09
2023-02-05T12:29:12.828Z,13.16
2023-02-05T12:39:54.634Z,13.86
2023-02-05T12:42:40.785Z,12.18
2023-02-05T12:45:29.585Z,13.52
2023-02-05T12:48:16.077Z,13.30
2023-02-05T12:51:29.985Z,12.39
2023-02-05T12:54:52.214Z,14.09
2023-02-05T12:57:32.218Z,14.00
2023-02-05T13:04:22.914Z,11.82
2023-02-05T13:07:08.441Z,12.84
2023-02-05T13:13:54.642Z,14.05
2023-02-05T13:16:31.158Z,14.89
2023-02-05T13:19:28.148Z,15.88
2023-02-05T13:22:00.476Z,16.63
2023-02-05T13:24:52.740Z,17.15
2023-02-05T13:31:45.219Z,16.90
2023-02-05T13:34:16.672Z,16.50
2023-02-05T13:37:16.027Z,17.29
2023-02-05T13:40:39.547Z,16.94
2023-02-05T13:44:06.938Z,16.47
2023-02-05T13:47:11.903Z,16.60
2023-02-05T13:54:57.848Z,17.58
2023-02-05T13:58:11.674Z,16.71
2023-02-05T14:05:52.842Z,17.27
2023-02-05T14:20:25.133Z,16.89
2023-02-05T14:22:57.904Z,18.44
2023-02-05T14:30:51.902Z,19.35
2023-02-05T14:34:34.834Z,17.98
2023-02-05T14:41:24.315Z,19.13
2023-02-05T14:51:24.237Z,19.48
2023-02-05T14:57:47.987Z,21.74
2023-02-05T15:04:53.497Z,19.51
2023-02-05T15:15:31.646Z,19.13
2023-02-05T15:21:52.737Z,19.64
2023-02-05T15:36:54.687Z,21.56
2023-02-05T15:40:16.497Z,22.02
2023-02-05T15:46:16.256Z,21.80
2023-02-05T15:48:44.785Z,22.14
2023-02-05T16:03:15.638Z,23.26
2023-02-05T16:06:38.914Z,24.53
2023-02-05T16:09:37.407Z,24.23
2023-02-05T16:16:17.828Z,25.10
2023-02-05T16:19:01.455Z,24.57
2023-02-05T16:21:43.559Z,24.45
2023-02-05T16:24:32.506Z,25.51
2023-02-05T16:27:21.106Z,26.52
2023-02-05T16:29:58.913Z,26.30
2023-02-05T16:32:54.002Z,26.66
2023-02-05T16:35:32.553Z,27.47
2023-02-05T16:38:01.979Z,28.52
2023-02-05T16:40:38.834Z,29.04
2023-02-05T16:43:27.486Z,29.67
2023-02-05T16:46:07.907Z,30.40
2023-02-05T16:48:49.695Z,30.09
2023-02-05T16:51:54.073Z,30.44
2023-02-05T16:54:34.198Z,31.38
2023-02-05T16:57:23.597Z,31.85
2023-02-05T17:00:06.411Z,32.37
2023-02-05T17:02:39.475Z,32.41
2023-02-05T17:05:25.852Z,31.96
2023-02-05T17:08:06.984Z,31.88
2023-02-05T17:10:53.701Z,32.38
2023-02-05T17:13:37.750Z,32.86
2023-02-05T17:16:24.747Z,33.42
2023-02-05T17:19:06.754Z,33.58
2023-02-05T17:21:37.121Z,33.48
2023-02-05T17:24:04.900Z,33.97
2023-02-05T17:26:40.037Z,33.38
2023-02-05T17:29:15.837Z,34.32
2023-02-05T17:31:43.327Z,34.21
2023-02-05T17:34:11.865Z,34.38
2023-02-05T17:36:39.258Z,34.41
2023-02-05T17:39:06.933Z,35.01
2023-02-05T17:41:37.751Z,34.68
2023-02-05T17:44:06.492Z,34.53
2023-02-05T17:47:03.021Z,34.14
2023-02-05T17:49:31.166Z,33.81
2023-02-05T17:51:58.762Z,34.01
2023-02-05T17:54:26.677Z,34.46
2023-02-05T17:56:58.596Z,34.92
2023-02-05T17:59:26.483Z,35.19
2023-02-05T18:01:56.759Z,34.79
2023-02-05T18:04:24.117Z,35.37
2023-02-05T18:06:52.198Z,36.00
2023-02-05T18:09:19.481Z,36.49
2023-02-05T18:11:47.737Z,35.49
2023-02-05T18:14:15.197Z,36.15
2023-02-05T18:16:42.930Z,35.84
2023-02-05T18:19:10.616Z,36.48
2023-02-05T18:21:39.210Z,36.36
2023-02-05T18:24:10.708Z,36.28
2023-02-05T18:26:41.014Z,36.76
2023-02-05T18:29:13.395Z,37.03
2023-02-05T18:31:42.401Z,36.96
2023-02-05T18:34:09.646Z,37.12
2023-02-05T18:36:37.212Z,37.26
2023-02-05T18:39:07.351Z,36.96
2023-02-05T18:41:37.828Z,36.87
2023-02-05T18:44:05.870Z,36.84
2023-02-05T18:46:33.309Z,37.23
2023-02-05T18:49:05.177Z,36.69
2023-02-05T18:51:32.642Z,36.42
2023-02-05T18:53:59.915Z,36.23
2023-02-05T18:56:28.424Z,36.24
2023-02-05T18:58:59.380Z,35.67
2023-02-05T19:01:29.121Z,36.35
2023-02-05T19:04:01.982Z,36.74
2023-02-05T19:06:29.300Z,36.95
2023-02-05T19:08:58.901Z,37.27
2023-02-05T19:11:28.349Z,37.05
2023-02-05T19:14:02.592Z,36.99
2023-02-05T19:16:33.805Z,36.97
2023-02-05T19:19:02.507Z,37.06
2023-02-05T19:21:30.383Z,37.33
2023-02-05T19:24:00.302Z,37.37
2023-02-05T19:26:29.597Z,37.80
2023-02-05T19:29:04.547Z,37.65
2023-02-05T19:31:37.186Z,37.67
2023-02-05T19:34:05.415Z,38.29
2023-02-05T19:36:33.756Z,38.43
2023-02-05T19:39:04.497Z,38.35
2023-02-05T19:41:34.480Z,38.64
2023-02-05T19:44:05.910Z,38.82
2023-02-05T19:46:40.784Z,38.33
2023-02-05T19:49:14.933Z,38.07
2023-02-05T19:51:50.517Z,38.21
2023-02-05T19:54:21.907Z,38.02
2023-02-05T19:56:49.907Z,38.44
2023-02-05T19:59:17.664Z,37.90
2023-02-05T20:01:45.933Z,38.42
2023-02-05T20:04:23.752Z,38.42
2023-02-05T20:06:59.233Z,38.55
2023-02-05T20:09:28.333Z,38.24
2023-02-05T20:11:55.862Z,38.12
2023-02-05T20:14:24.215Z,38.16
2023-02-05T20:16:53.139Z,38.32
2023-02-05T20:19:21.095Z,38.82
2023-02-05T20:21:49.077Z,38.40
2023-02-05T20:24:16.830Z,38.27
2023-02-05T20:26:46.632Z,38.07
2023-02-05T20:29:14.112Z,37.95
2023-02-05T20:31:48.983Z,37.90
2023-02-05T20:34:20.280Z,38.12
2023-02-05T20:36:56.465Z,38.47
2023-02-05T20:39:27.188Z,38.44
2023-02-05T20:41:56.694Z,38.60
2023-02-05T20:44:27.533Z,39.09
2023-02-05T20:46:55.693Z,39.00
2023-02-05T20:49:23.155Z,39.30
2023-02-05T20:51:50.590Z,39.79
2023-02-05T20:54:18.007Z,39.35
2023-02-05T20:56:45.466Z,39.77
2023-02-05T20:59:13.019Z,39.71
2023-02-05T21:01:41.023Z,39.74
2023-02-05T21:04:10.066Z,39.61
2023-02-05T21:06:40.434Z,40.00
2023-02-05T21:09:09.994Z,40.13
2023-02-05T21:11:38.745Z,40.43
2023-02-05T21:14:07.125Z,40.64
2023-02-05T21:16:36.123Z,40.42
2023-02-05T21:19:07.086Z,40.59
2023-02-05T21:21:36.938Z,40.41
2023-02-05T21:24:13.863Z,40.35
2023-02-05T21:26:44.991Z,40.02
2023-02-05T21:29:16.339Z,40.84
2023-02-05T21:31:51.905Z,40.32
2023-02-05T21:34:22.935Z,40.78
2023-02-05T21:36:51.523Z,40.34
2023-02-05T21:39:19.434Z,40.23
2023-02-05T21:41:47.554Z,40.23
2023-02-05T21:44:15.027Z,39.79
2023-02-05T21:46:42.849Z,40.35
2023-02-05T21:49:11.825Z,40.50
2023-02-05T21:51:39.242Z,40.58
2023-02-05T21:54:06.916Z,40.72
2023-02-05T21:56:39.353Z,40.48
2023-02-05T21:59:07.096Z,40.93
2023-02-05T22:01:36.769Z,41.08
2023-02-05T22:04:15.707Z,41.38
2023-02-05T22:06:44.166Z,41.06
2023-02-05T22:09:15.655Z,40.63
2023-02-05T22:11:44.351Z,40.36
2023-02-05T22:14:11.970Z,40.42
2023-02-05T22:16:40.073Z,40.65
2023-02-05T22:19:07.932Z,41.19
2023-02-05T22:21:40.592Z,40.78
2023-02-05T22:24:13.812Z,40.70
2023-02-05T22:26:43.190Z,40.98
2023-02-05T22:29:15.001Z,41.08
2023-02-05T22:31:49.269Z,40.97
2023-02-05T22:34:17.606Z,40.91
2023-02-05T22:36:47.071Z,41.23
2023-02-05T22:39:14.304Z,41.08
2023-02-05T22:41:43.397Z,41.65
2023-02-05T22:44:12.858Z,41.70
2023-02-05T22:46:43.851Z,41.98
2023-02-05T22:49:13.661Z,42.27
2023-02-05T22:51:42.184Z,41.94
2023-02-05T22:54:14.668Z,41.57
2023-02-05T22:56:42.377Z,41.99
2023-02-05T22:59:09.914Z,42.27
2023-02-05T23:01:38.818Z,42.19
2023-02-05T23:04:09.026Z,42.03
2023-02-05T23:06:43.093Z,42.38
2023-02-05T23:09:17.810Z,42.30
2023-02-05T23:11:46.485Z,42.09
2023-02-05T23:14:16.853Z,41.79
2023-02-05T23:16:47.153Z,41.86
2023-02-05T23:19:19.749Z,42.01
2023-02-05T23:21:48.020Z,42.40
2023-02-05T23:24:16.057Z,42.47
2023-02-05T23:26:48.009Z,42.12
2023-02-05T23:29:16.973Z,42.71
2023-02-05T23:31:44.590Z,42.61
2023-02-05T23:34:13.494Z,42.21
2023-02-05T23:36:40.758Z,42.76
2023-02-05T23:39:08.558Z,42.67
2023-02-05T23:41:36.385Z,42.91
2023-02-05T23:44:17.786Z,42.48
2023-02-05T23:46:47.118Z,42.66
2023-02-05T23:49:15.407Z,42.63
2023-02-05T23:51:43.244Z,42.82
2023-02-05T23:54:12.104Z,42.81
2023-02-05T23:56:40.499Z,43.82
2023-02-05T23:59:11.509Z,43.87
